sensor_id;sensor_type;location;lat;lon;timestamp;pressure;altitude;pressure_sealevel;temperature;humidity
44825;BME280;30542;47.928;2.138;2023-02-22T00:04:46;100172.13;;;19.15;53.38
44825;BME280;30542;47.928;2.138;2023-02-22T00:09:46;100161.44;;;19.15;53.54
44825;BME280;30542;47.928;2.138;2023-02-22T00:14:47;100148.34;;;19.08;53.87
44825;BME280;30542;47.928;2.138;2023-02-22T00:19:48;100151.28;;;19.11;53.90
44825;BME280;30542;47.928;2.138;2023-02-22T00:24:49;100151.53;;;19.10;53.48
44825;BME280;30542;47.928;2.138;2023-02-22T00:29:49;100155.28;;;19.09;53.71
44825;BME280;30542;47.928;2.138;2023-02-22T00:34:51;100154.72;;;19.07;53.69
44825;BME280;30542;47.928;2.138;2023-02-22T00:39:52;100146.97;;;19.00;53.37
44825;BME280;30542;47.928;2.138;2023-02-22T00:44:53;100156.06;;;19.04;53.95
44825;BME280;30542;47.928;2.138;2023-02-22T00:49:53;100151.78;;;19.03;53.60
44825;BME280;30542;47.928;2.138;2023-02-22T00:54:54;100152.31;;;19.00;53.83
44825;BME280;30542;47.928;2.138;2023-02-22T00:59:56;100142.44;;;19.01;53.32
44825;BME280;30542;47.928;2.138;2023-02-22T01:04:56;100150.69;;;18.99;53.67
44825;BME280;30542;47.928;2.138;2023-02-22T01:09:56;100149.88;;;18.99;53.58
44825;BME280;30542;47.928;2.138;2023-02-22T01:14:57;100147.50;;;18.97;53.76
44825;BME280;30542;47.928;2.138;2023-02-22T01:19:57;100147.75;;;18.96;53.83
44825;BME280;30542;47.928;2.138;2023-02-22T01:24:57;100142.44;;;18.96;53.62
44825;BME280;30542;47.928;2.138;2023-02-22T01:29:58;100156.00;;;18.94;53.67
44825;BME280;30542;47.928;2.138;2023-02-22T01:34:58;100153.88;;;18.91;53.49
44825;BME280;30542;47.928;2.138;2023-02-22T01:39:59;100147.72;;;18.91;53.50
44825;BME280;30542;47.928;2.138;2023-02-22T01:50:34;100152.81;;;18.87;53.31
44825;BME280;30542;47.928;2.138;2023-02-22T01:55:37;100145.28;;;18.79;53.30
44825;BME280;30542;47.928;2.138;2023-02-22T02:00:38;100140.78;;;18.84;53.69
44825;BME280;30542;47.928;2.138;2023-02-22T02:05:39;100137.53;;;18.82;53.57
44825;BME280;30542;47.928;2.138;2023-02-22T02:10:41;100143.72;;;18.83;53.31
44825;BME280;30542;47.928;2.138;2023-02-22T02:15:42;100139.41;;;18.82;53.63
44825;BME280;30542;47.928;2.138;2023-02-22T02:42:09;100130.59;;;18.76;52.93
44825;BME280;30542;47.928;2.138;2023-02-22T02:47:16;100130.59;;;18.76;53.00
44825;BME280;30542;47.928;2.138;2023-02-22T02:52:19;100123.66;;;18.75;53.16
44825;BME280;30542;47.928;2.138;2023-02-22T02:57:20;100131.66;;;18.75;53.08
44825;BME280;30542;47.928;2.138;2023-02-22T03:02:46;100132.69;;;18.74;53.05
44825;BME280;30542;47.928;2.138;2023-02-22T03:13:07;100147.09;;;18.73;53.40
44825;BME280;30542;47.928;2.138;2023-02-22T03:18:20;100147.38;;;18.72;53.32
44825;BME280;30542;47.928;2.138;2023-02-22T03:28:45;100146.00;;;18.69;52.85
44825;BME280;30542;47.928;2.138;2023-02-22T03:33:53;100129.19;;;18.69;52.80
44825;BME280;30542;47.928;2.138;2023-02-22T03:38:57;100119.56;;;18.62;53.00
44825;BME280;30542;47.928;2.138;2023-02-22T03:44:07;100126.78;;;18.67;53.18
44825;BME280;30542;47.928;2.138;2023-02-22T03:49:17;100128.16;;;18.70;53.15
44825;BME280;30542;47.928;2.138;2023-02-22T03:54:19;100121.22;;;18.74;52.62
44825;BME280;30542;47.928;2.138;2023-02-22T03:59:20;100123.13;;;18.78;52.49
44825;BME280;30542;47.928;2.138;2023-02-22T04:04:26;100117.56;;;18.85;52.52
44825;BME280;30542;47.928;2.138;2023-02-22T04:09:26;100111.72;;;18.93;52.58
44825;BME280;30542;47.928;2.138;2023-02-22T04:14:27;100123.47;;;19.02;52.15
44825;BME280;30542;47.928;2.138;2023-02-22T04:19:27;100116.31;;;19.08;51.96
44825;BME280;30542;47.928;2.138;2023-02-22T04:24:28;100109.63;;;19.16;52.05
44825;BME280;30542;47.928;2.138;2023-02-22T04:29:28;100121.16;;;19.21;51.84
44825;BME280;30542;47.928;2.138;2023-02-22T04:34:29;100123.03;;;19.26;51.65
44825;BME280;30542;47.928;2.138;2023-02-22T04:39:29;100123.31;;;19.29;51.60
44825;BME280;30542;47.928;2.138;2023-02-22T04:44:30;100109.97;;;19.34;51.27
44825;BME280;30542;47.928;2.138;2023-02-22T04:49:31;100108.63;;;19.37;51.21
44825;BME280;30542;47.928;2.138;2023-02-22T04:54:31;100110.75;;;19.40;51.27
44825;BME280;30542;47.928;2.138;2023-02-22T04:59:31;100106.78;;;19.43;51.48
44825;BME280;30542;47.928;2.138;2023-02-22T05:04:32;100128.41;;;19.46;51.11
44825;BME280;30542;47.928;2.138;2023-02-22T05:09:32;100123.59;;;19.48;51.27
44825;BME280;30542;47.928;2.138;2023-02-22T05:14:32;100115.06;;;19.51;51.21
44825;BME280;30542;47.928;2.138;2023-02-22T05:19:33;100119.88;;;19.54;51.43
44825;BME280;30542;47.928;2.138;2023-02-22T05:24:33;100124.69;;;19.57;50.81
44825;BME280;30542;47.928;2.138;2023-02-22T05:29:34;100117.22;;;19.59;50.87
44825;BME280;30542;47.928;2.138;2023-02-22T05:34:34;100126.81;;;19.60;51.10
44825;BME280;30542;47.928;2.138;2023-02-22T05:39:35;100122.84;;;19.63;50.85
44825;BME280;30542;47.928;2.138;2023-02-22T05:44:35;100129.00;;;19.64;50.99
44825;BME280;30542;47.928;2.138;2023-02-22T05:49:35;100129.00;;;19.64;50.86
44825;BME280;30542;47.928;2.138;2023-02-22T05:54:36;100129.53;;;19.66;50.65
44825;BME280;30542;47.928;2.138;2023-02-22T05:59:36;100138.09;;;19.68;50.53
44825;BME280;30542;47.928;2.138;2023-02-22T06:04:37;100128.19;;;19.68;50.89
44825;BME280;30542;47.928;2.138;2023-02-22T06:09:37;100122.56;;;19.70;50.90
44825;BME280;30542;47.928;2.138;2023-02-22T06:14:38;100134.88;;;19.71;50.71
44825;BME280;30542;47.928;2.138;2023-02-22T06:19:40;100134.88;;;19.71;50.47
44825;BME280;30542;47.928;2.138;2023-02-22T06:24:40;100131.66;;;19.74;50.38
44825;BME280;30542;47.928;2.138;2023-02-22T06:29:44;100142.91;;;19.76;50.51
44825;BME280;30542;47.928;2.138;2023-02-22T06:34:45;100142.91;;;19.76;50.49
44825;BME280;30542;47.928;2.138;2023-02-22T06:39:46;100146.09;;;19.78;50.38
44825;BME280;30542;47.928;2.138;2023-02-22T06:44:46;100154.94;;;19.78;50.41
44825;BME280;30542;47.928;2.138;2023-02-22T06:49:52;100141.31;;;19.80;50.41
44825;BME280;30542;47.928;2.138;2023-02-22T06:54:52;100120.41;;;19.56;50.33
44825;BME280;30542;47.928;2.138;2023-02-22T06:59:53;100148.25;;;19.81;50.45
44825;BME280;30542;47.928;2.138;2023-02-22T07:04:53;100160.53;;;19.82;50.36
44825;BME280;30542;47.928;2.138;2023-02-22T07:09:53;100157.88;;;19.82;50.49
44825;BME280;30542;47.928;2.138;2023-02-22T07:14:54;100170.69;;;19.85;50.10
44825;BME280;30542;47.928;2.138;2023-02-22T07:19:55;100165.34;;;19.80;50.38
44825;BME280;30542;47.928;2.138;2023-02-22T07:24:55;100177.66;;;19.86;50.12
44825;BME280;30542;47.928;2.138;2023-02-22T07:29:56;100189.16;;;19.86;50.68
44825;BME280;30542;47.928;2.138;2023-02-22T07:34:56;100189.41;;;19.90;50.89
44825;BME280;30542;47.928;2.138;2023-02-22T07:39:57;100188.38;;;19.91;51.36
44825;BME280;30542;47.928;2.138;2023-02-22T07:44:57;100194.50;;;19.92;51.26
44825;BME280;30542;47.928;2.138;2023-02-22T07:49:58;100188.38;;;19.91;51.51
44825;BME280;30542;47.928;2.138;2023-02-22T07:54:58;100172.56;;;19.84;51.43
44825;BME280;30542;47.928;2.138;2023-02-22T07:59:59;100195.03;;;19.94;52.24
44825;BME280;30542;47.928;2.138;2023-02-22T08:04:59;100188.09;;;19.98;52.22
44825;BME280;30542;47.928;2.138;2023-02-22T08:10:00;100193.19;;;19.99;51.94
44825;BME280;30542;47.928;2.138;2023-02-22T08:15:01;100194.50;;;19.97;51.65
44825;BME280;30542;47.928;2.138;2023-02-22T08:20:02;100201.97;;;19.95;52.35
44825;BME280;30542;47.928;2.138;2023-02-22T08:25:03;100199.84;;;19.86;53.35
44825;BME280;30542;47.928;2.138;2023-02-22T08:30:04;100197.94;;;19.77;52.85
44825;BME280;30542;47.928;2.138;2023-02-22T08:35:05;100198.97;;;19.60;51.69
44825;BME280;30542;47.928;2.138;2023-02-22T08:40:06;100204.53;;;19.49;50.50
44825;BME280;30542;47.928;2.138;2023-02-22T08:45:07;100198.09;;;19.40;49.66
44825;BME280;30542;47.928;2.138;2023-02-22T08:50:08;100205.81;;;19.36;49.62
44825;BME280;30542;47.928;2.138;2023-02-22T08:55:09;100187.69;;;19.38;49.78
44825;BME280;30542;47.928;2.138;2023-02-22T09:00:10;100196.00;;;19.47;49.97
44825;BME280;30542;47.928;2.138;2023-02-22T09:05:10;100200.81;;;19.60;50.22
44825;BME280;30542;47.928;2.138;2023-02-22T09:10:16;100196.88;;;19.73;50.55
44825;BME280;30542;47.928;2.138;2023-02-22T09:15:17;100197.72;;;19.83;50.55
44825;BME280;30542;47.928;2.138;2023-02-22T09:20:20;100185.41;;;19.82;50.54
44825;BME280;30542;47.928;2.138;2023-02-22T09:25:22;100193.72;;;19.96;50.67
44825;BME280;30542;47.928;2.138;2023-02-22T09:30:34;100199.56;;;19.98;50.49
44825;BME280;30542;47.928;2.138;2023-02-22T09:35:35;100203.88;;;19.99;50.59
44825;BME280;30542;47.928;2.138;2023-02-22T09:40:39;100202.00;;;20.00;51.10
44825;BME280;30542;47.928;2.138;2023-02-22T09:51:14;100208.16;;;20.05;54.24
44825;BME280;30542;47.928;2.138;2023-02-22T09:56:18;100197.16;;;20.07;53.74
44825;BME280;30542;47.928;2.138;2023-02-22T10:06:33;100200.38;;;20.14;53.50
44825;BME280;30542;47.928;2.138;2023-02-22T10:16:51;100203.63;;;20.16;52.99
44825;BME280;30542;47.928;2.138;2023-02-22T10:27:38;100190.50;;;20.15;53.00
44825;BME280;30542;47.928;2.138;2023-02-22T10:32:42;100193.72;;;20.22;52.75
44825;BME280;30542;47.928;2.138;2023-02-22T10:37:44;100202.28;;;20.24;52.57
44825;BME280;30542;47.928;2.138;2023-02-22T10:42:49;100199.84;;;20.22;52.15
44825;BME280;30542;47.928;2.138;2023-02-22T10:47:50;100198.78;;;20.18;51.99
44825;BME280;30542;47.928;2.138;2023-02-22T10:52:53;100190.25;;;20.16;52.07
44825;BME280;30542;47.928;2.138;2023-02-22T10:58:05;100186.22;;;20.14;51.86
44825;BME280;30542;47.928;2.138;2023-02-22T11:03:16;100203.34;;;20.13;52.17
44825;BME280;30542;47.928;2.138;2023-02-22T11:13:37;100196.41;;;20.11;51.97
44825;BME280;30542;47.928;2.138;2023-02-22T11:18:38;100193.72;;;20.11;52.15
44825;BME280;30542;47.928;2.138;2023-02-22T11:23:41;100203.34;;;20.13;52.00
44825;BME280;30542;47.928;2.138;2023-02-22T11:28:49;100202.53;;;20.12;52.04
44825;BME280;30542;47.928;2.138;2023-02-22T11:33:58;100202.25;;;20.14;51.74
44825;BME280;30542;47.928;2.138;2023-02-22T11:38:59;100201.75;;;20.11;51.90
44825;BME280;30542;47.928;2.138;2023-02-22T11:44:13;100195.84;;;20.15;51.88
44825;BME280;30542;47.928;2.138;2023-02-22T11:49:23;100190.25;;;20.16;51.75
44825;BME280;30542;47.928;2.138;2023-02-22T12:10:10;100174.47;;;20.20;51.54
44825;BME280;30542;47.928;2.138;2023-02-22T12:20:57;100170.72;;;20.21;51.59
44825;BME280;30542;47.928;2.138;2023-02-22T12:26:12;100137.03;;;19.99;51.52
44825;BME280;30542;47.928;2.138;2023-02-22T12:31:18;100169.13;;;20.20;51.49
44825;BME280;30542;47.928;2.138;2023-02-22T12:36:24;100163.78;;;20.20;51.62
44825;BME280;30542;47.928;2.138;2023-02-22T12:41:32;100162.69;;;20.21;51.67
44825;BME280;30542;47.928;2.138;2023-02-22T12:46:39;100158.13;;;20.21;51.67
44825;BME280;30542;47.928;2.138;2023-02-22T13:02:55;100143.44;;;20.24;52.41
44825;BME280;30542;47.928;2.138;2023-02-22T13:18:38;100134.88;;;20.22;53.40
44825;BME280;30542;47.928;2.138;2023-02-22T13:24:05;100115.91;;;20.13;53.69
44825;BME280;30542;47.928;2.138;2023-02-22T13:40:32;100126.34;;;20.20;54.12
44825;BME280;30542;47.928;2.138;2023-02-22T13:56:13;100104.38;;;20.18;54.52
44825;BME280;30542;47.928;2.138;2023-02-22T14:01:44;100107.06;;;20.18;54.34
44825;BME280;30542;47.928;2.138;2023-02-22T14:06:45;100101.72;;;20.18;54.16
44825;BME280;30542;47.928;2.138;2023-02-22T14:11:46;100095.56;;;20.17;54.29
44825;BME280;30542;47.928;2.138;2023-02-22T14:17:19;100100.63;;;20.19;53.63
44825;BME280;30542;47.928;2.138;2023-02-22T14:22:26;100085.69;;;20.18;53.00
44825;BME280;30542;47.928;2.138;2023-02-22T14:27:39;100081.91;;;20.19;52.63
44825;BME280;30542;47.928;2.138;2023-02-22T14:32:39;100083.53;;;20.20;52.80
44825;BME280;30542;47.928;2.138;2023-02-22T14:37:41;100085.94;;;20.21;52.48
44825;BME280;30542;47.928;2.138;2023-02-22T14:43:11;100082.19;;;20.22;52.57
44825;BME280;30542;47.928;2.138;2023-02-22T14:48:36;100080.84;;;20.25;52.78
44825;BME280;30542;47.928;2.138;2023-02-22T14:53:50;100086.97;;;20.30;53.15
44825;BME280;30542;47.928;2.138;2023-02-22T14:59:21;100084.03;;;20.32;52.60
44825;BME280;30542;47.928;2.138;2023-02-22T15:04:26;100084.03;;;20.32;52.80
44825;BME280;30542;47.928;2.138;2023-02-22T15:09:30;100070.94;;;20.25;52.65
44825;BME280;30542;47.928;2.138;2023-02-22T15:14:37;100080.03;;;20.34;52.57
44825;BME280;30542;47.928;2.138;2023-02-22T15:19:40;100078.41;;;20.33;52.44
44825;BME280;30542;47.928;2.138;2023-02-22T15:24:41;100079.22;;;20.34;52.29
44825;BME280;30542;47.928;2.138;2023-02-22T15:29:42;100075.47;;;20.35;52.20
44825;BME280;30542;47.928;2.138;2023-02-22T15:34:43;100079.22;;;20.34;52.42
44825;BME280;30542;47.928;2.138;2023-02-22T15:39:44;100082.41;;;20.36;52.99
44825;BME280;30542;47.928;2.138;2023-02-22T15:44:46;100070.13;;;20.35;53.36
44825;BME280;30542;47.928;2.138;2023-02-22T15:50:19;100072.28;;;20.33;53.86
44825;BME280;30542;47.928;2.138;2023-02-22T15:55:37;100067.97;;;20.32;54.13
44825;BME280;30542;47.928;2.138;2023-02-22T16:00:41;100067.19;;;20.31;54.31
44825;BME280;30542;47.928;2.138;2023-02-22T16:11:06;100070.41;;;20.28;54.73
44825;BME280;30542;47.928;2.138;2023-02-22T16:21:24;100070.66;;;20.27;54.80
44825;BME280;30542;47.928;2.138;2023-02-22T16:26:32;100069.06;;;20.26;54.96
44825;BME280;30542;47.928;2.138;2023-02-22T16:31:36;100072.81;;;20.25;54.86
44825;BME280;30542;47.928;2.138;2023-02-22T16:36:44;100070.16;;;20.25;55.09
44825;BME280;30542;47.928;2.138;2023-02-22T16:41:45;100077.63;;;20.23;55.22
44825;BME280;30542;47.928;2.138;2023-02-22T16:46:46;100079.25;;;20.19;54.87
44825;BME280;30542;47.928;2.138;2023-02-22T16:51:49;100076.31;;;20.15;54.27
44825;BME280;30542;47.928;2.138;2023-02-22T16:56:54;100078.97;;;20.15;54.56
44825;BME280;30542;47.928;2.138;2023-02-22T17:01:55;100080.06;;;20.14;54.73
44825;BME280;30542;47.928;2.138;2023-02-22T17:06:57;100086.50;;;20.13;54.62
44825;BME280;30542;47.928;2.138;2023-02-22T17:11:58;100086.50;;;20.13;54.74
44825;BME280;30542;47.928;2.138;2023-02-22T17:16:59;100086.75;;;20.11;54.91
44825;BME280;30542;47.928;2.138;2023-02-22T17:21:59;100089.44;;;20.11;54.86
44825;BME280;30542;47.928;2.138;2023-02-22T17:27:05;100084.09;;;20.11;54.82
44825;BME280;30542;47.928;2.138;2023-02-22T17:32:06;100078.19;;;20.09;54.89
44825;BME280;30542;47.928;2.138;2023-02-22T17:37:06;100085.69;;;20.13;54.90
44825;BME280;30542;47.928;2.138;2023-02-22T17:42:07;100097.19;;;20.13;55.15
44825;BME280;30542;47.928;2.138;2023-02-22T17:47:07;100107.88;;;20.13;55.11
44825;BME280;30542;47.928;2.138;2023-02-22T17:52:08;100088.38;;;20.02;54.82
44825;BME280;30542;47.928;2.138;2023-02-22T17:57:08;100116.69;;;20.14;55.02
44825;BME280;30542;47.928;2.138;2023-02-22T18:02:09;100111.63;;;20.12;55.02
44825;BME280;30542;47.928;2.138;2023-02-22T18:07:09;100118.03;;;20.11;54.96
44825;BME280;30542;47.928;2.138;2023-02-22T18:12:12;100121.25;;;20.13;55.04
44825;BME280;30542;47.928;2.138;2023-02-22T18:17:12;100118.84;;;20.11;54.98
44825;BME280;30542;47.928;2.138;2023-02-22T18:22:13;100118.28;;;20.15;54.83
44825;BME280;30542;47.928;2.138;2023-02-22T18:27:13;100131.41;;;20.16;54.82
44825;BME280;30542;47.928;2.138;2023-02-22T18:32:14;100118.28;;;20.15;54.84
44825;BME280;30542;47.928;2.138;2023-02-22T18:37:14;100126.88;;;20.17;54.49
44825;BME280;30542;47.928;2.138;2023-02-22T18:42:19;100133.28;;;20.21;54.57
44825;BME280;30542;47.928;2.138;2023-02-22T18:47:22;100122.56;;;20.21;54.48
44825;BME280;30542;47.928;2.138;2023-02-22T18:52:23;100127.94;;;20.21;54.42
44825;BME280;30542;47.928;2.138;2023-02-22T18:57:23;100132.19;;;20.22;54.54
44825;BME280;30542;47.928;2.138;2023-02-22T19:02:24;100128.44;;;20.23;54.38
44825;BME280;30542;47.928;2.138;2023-02-22T19:07:25;100124.72;;;20.19;54.41
44825;BME280;30542;47.928;2.138;2023-02-22T19:12:25;100136.47;;;20.23;53.98
44825;BME280;30542;47.928;2.138;2023-02-22T19:17:27;100128.47;;;20.18;54.51
44825;BME280;30542;47.928;2.138;2023-02-22T19:22:28;100127.38;;;20.19;54.30
44825;BME280;30542;47.928;2.138;2023-02-22T19:27:31;100126.06;;;20.21;54.47
44825;BME280;30542;47.928;2.138;2023-02-22T19:32:33;100133.00;;;20.17;54.55
44825;BME280;30542;47.928;2.138;2023-02-22T19:37:35;100132.75;;;20.24;54.40
44825;BME280;30542;47.928;2.138;2023-02-22T19:42:35;100129.00;;;20.25;54.20
44825;BME280;30542;47.928;2.138;2023-02-22T19:47:36;100128.72;;;20.26;54.96
44825;BME280;30542;47.928;2.138;2023-02-22T19:52:36;100139.97;;;20.28;54.26
44825;BME280;30542;47.928;2.138;2023-02-22T19:57:42;100136.47;;;20.28;54.16
44825;BME280;30542;47.928;2.138;2023-02-22T20:02:45;100134.59;;;20.28;54.19
44825;BME280;30542;47.928;2.138;2023-02-22T20:07:45;100132.19;;;20.27;53.99
44825;BME280;30542;47.928;2.138;2023-02-22T20:12:46;100129.53;;;20.22;54.32
44825;BME280;30542;47.928;2.138;2023-02-22T20:17:46;100134.06;;;20.26;54.26
44825;BME280;30542;47.928;2.138;2023-02-22T20:22:49;100134.34;;;20.25;54.09
44825;BME280;30542;47.928;2.138;2023-02-22T20:27:50;100140.22;;;20.27;54.16
44825;BME280;30542;47.928;2.138;2023-02-22T20:32:50;100143.44;;;20.29;54.06
44825;BME280;30542;47.928;2.138;2023-02-22T20:37:52;100150.38;;;20.30;54.13
44825;BME280;30542;47.928;2.138;2023-02-22T20:42:52;100158.69;;;20.28;54.11
44825;BME280;30542;47.928;2.138;2023-02-22T20:47:52;100147.69;;;20.30;53.76
44825;BME280;30542;47.928;2.138;2023-02-22T20:52:53;100161.06;;;20.30;53.90
44825;BME280;30542;47.928;2.138;2023-02-22T20:57:54;100157.06;;;20.32;54.03
44825;BME280;30542;47.928;2.138;2023-02-22T21:02:54;100158.41;;;20.30;53.75
44825;BME280;30542;47.928;2.138;2023-02-22T21:07:54;100158.13;;;20.31;53.91
44825;BME280;30542;47.928;2.138;2023-02-22T21:12:57;100166.94;;;20.32;53.90
44825;BME280;30542;47.928;2.138;2023-02-22T21:17:57;100160.00;;;20.31;53.69
44825;BME280;30542;47.928;2.138;2023-02-22T21:22:58;100158.91;;;20.32;53.67
44825;BME280;30542;47.928;2.138;2023-02-22T21:28:01;100161.88;;;20.30;53.77
44825;BME280;30542;47.928;2.138;2023-02-22T21:33:01;100154.66;;;20.31;53.56
44825;BME280;30542;47.928;2.138;2023-02-22T21:38:01;100150.66;;;20.28;53.75
44825;BME280;30542;47.928;2.138;2023-02-22T21:43:02;100163.47;;;20.26;53.41
44825;BME280;30542;47.928;2.138;2023-02-22T21:48:03;100160.28;;;20.24;53.58
44825;BME280;30542;47.928;2.138;2023-02-22T21:53:04;100159.47;;;20.29;53.09
44825;BME280;30542;47.928;2.138;2023-02-22T21:58:05;100168.56;;;20.28;52.85
44825;BME280;30542;47.928;2.138;2023-02-22T22:03:05;100165.34;;;20.26;53.12
44825;BME280;30542;47.928;2.138;2023-02-22T22:08:11;100168.03;;;20.21;52.73
44825;BME280;30542;47.928;2.138;2023-02-22T22:13:18;100170.44;;;20.17;52.65
44825;BME280;30542;47.928;2.138;2023-02-22T22:18:19;100161.63;;;20.11;52.67
44825;BME280;30542;47.928;2.138;2023-02-22T22:23:19;100170.19;;;20.08;52.79
44825;BME280;30542;47.928;2.138;2023-02-22T22:28:19;100174.19;;;20.06;52.87
44825;BME280;30542;47.928;2.138;2023-02-22T22:33:20;100160.03;;;19.95;52.83
44825;BME280;30542;47.928;2.138;2023-02-22T22:38:21;100174.47;;;19.99;52.69
44825;BME280;30542;47.928;2.138;2023-02-22T22:43:21;100172.31;;;19.96;52.76
44825;BME280;30542;47.928;2.138;2023-02-22T22:48:22;100183.53;;;19.93;52.63
44825;BME280;30542;47.928;2.138;2023-02-22T22:53:24;100168.03;;;19.85;52.85
44825;BME280;30542;47.928;2.138;2023-02-22T22:58:24;100172.84;;;19.88;52.62
44825;BME280;30542;47.928;2.138;2023-02-22T23:03:25;100168.56;;;19.82;52.58
44825;BME280;30542;47.928;2.138;2023-02-22T23:08:25;100169.09;;;19.79;52.92
44825;BME280;30542;47.928;2.138;2023-02-22T23:13:28;100162.94;;;19.73;52.92
44825;BME280;30542;47.928;2.138;2023-02-22T23:18:28;100160.00;;;19.70;52.91
44825;BME280;30542;47.928;2.138;2023-02-22T23:23:33;100162.13;;;19.68;53.04
44825;BME280;30542;47.928;2.138;2023-02-22T23:28:33;100164.00;;;19.67;53.25
44825;BME280;30542;47.928;2.138;2023-02-22T23:33:34;100164.25;;;19.66;53.08
44825;BME280;30542;47.928;2.138;2023-02-22T23:38:34;100171.75;;;19.64;53.31
44825;BME280;30542;47.928;2.138;2023-02-22T23:43:36;100168.78;;;19.60;53.42
44825;BME280;30542;47.928;2.138;2023-02-22T23:48:41;100174.38;;;19.58;53.29
44825;BME280;30542;47.928;2.138;2023-02-22T23:53:45;100167.69;;;19.56;53.21
44825;BME280;30542;47.928;2.138;2023-02-22T23:58:47;100165.28;;;19.49;53.19
